createdAt,value
2017-04-06T00:00:08.511Z,0
2017-04-06T00:01:10.333Z,0
2017-04-06T00:02:12.125Z,0
2017-04-06T00:03:13.915Z,0
2017-04-06T00:04:15.816Z,0
2017-04-06T00:05:17.934Z,0
2017-04-06T00:06:19.756Z,0
2017-04-06T00:07:21.553Z,0
2017-04-06T00:08:23.361Z,0
2017-04-06T00:09:25.139Z,0
2017-04-06T00:10:27.473Z,0
2017-04-06T00:11:29.476Z,0
2017-04-06T00:12:31.265Z,0
2017-04-06T00:13:33.059Z,0
2017-04-06T00:14:34.848Z,0
2017-04-06T00:15:36.710Z,0
2017-04-06T00:16:38.501Z,0
2017-04-06T00:17:40.506Z,0
2017-04-06T00:18:42.285Z,0
2017-04-06T00:19:44.078Z,0
2017-04-06T00:20:45.875Z,0
2017-04-06T00:21:47.739Z,0
2017-04-06T00:22:49.535Z,0
2017-04-06T00:23:51.334Z,0
2017-04-06T00:24:53.127Z,0
2017-04-06T00:25:54.917Z,0
2017-04-06T00:26:56.722Z,0
2017-04-06T00:27:58.515Z,0
2017-04-06T00:29:00.423Z,0
2017-04-06T00:30:02.211Z,0
2017-04-06T00:31:04.007Z,0
2017-04-06T00:32:05.800Z,0
2017-04-06T00:33:07.931Z,0
2017-04-06T00:34:10.050Z,0
2017-04-06T00:35:12.199Z,0
2017-04-06T00:36:14.094Z,0
2017-04-06T00:37:15.891Z,0
2017-04-06T00:38:17.668Z,0
2017-04-06T00:39:19.461Z,0
2017-04-06T00:40:21.260Z,0
2017-04-06T00:41:23.384Z,0
2017-04-06T00:42:25.288Z,0
2017-04-06T00:43:27.092Z,0
2017-04-06T00:44:28.887Z,0
2017-04-06T00:45:30.680Z,0
2017-04-06T00:46:32.459Z,0
2017-04-06T00:47:34.262Z,0
2017-04-06T00:48:36.173Z,0
2017-04-06T00:49:37.974Z,0
2017-04-06T00:50:39.773Z,0
2017-04-06T00:51:41.558Z,0
2017-04-06T00:52:43.354Z,0
2017-04-06T00:53:45.148Z,0
2017-04-06T00:54:47.102Z,0
2017-04-06T00:55:48.891Z,0
2017-04-06T00:56:50.693Z,0
2017-04-06T00:57:52.485Z,0
2017-04-06T00:58:54.293Z,0
2017-04-06T00:59:56.078Z,0
2017-04-06T01:00:58.087Z,0
2017-04-06T01:01:59.876Z,0
2017-04-06T01:03:02.013Z,0
2017-04-06T01:04:03.807Z,0
2017-04-06T01:05:05.596Z,0
2017-04-06T01:06:07.406Z,0
2017-04-06T01:07:09.289Z,0
2017-04-06T01:08:11.095Z,0
2017-04-06T01:09:12.889Z,0
2017-04-06T01:10:14.684Z,0
2017-04-06T01:11:16.476Z,0
2017-04-06T01:12:18.265Z,0
2017-04-06T01:13:20.150Z,0
2017-04-06T01:14:21.939Z,0
2017-04-06T01:15:23.723Z,0
2017-04-06T01:16:25.523Z,0
2017-04-06T01:17:27.645Z,0
2017-04-06T01:18:29.435Z,0
2017-04-06T01:19:31.449Z,0
2017-04-06T01:20:33.247Z,0
2017-04-06T01:21:35.710Z,0
2017-04-06T01:22:37.491Z,0
2017-04-06T01:23:39.284Z,0
2017-04-06T01:24:41.246Z,0
2017-04-06T01:25:43.040Z,0
2017-04-06T01:26:45.034Z,0
2017-04-06T01:27:46.812Z,0
2017-04-06T01:28:48.627Z,0
2017-04-06T01:29:50.442Z,0
2017-04-06T01:30:52.237Z,0
2017-04-06T01:31:54.041Z,0
2017-04-06T01:32:55.825Z,0
2017-04-06T01:33:57.625Z,0
2017-04-06T01:34:59.414Z,0
2017-04-06T01:36:01.207Z,0
2017-04-06T01:37:02.995Z,0
2017-04-06T01:38:04.788Z,0
2017-04-06T01:39:07.092Z,0
2017-04-06T01:40:08.887Z,0
2017-04-06T01:41:11.000Z,0
2017-04-06T01:42:12.792Z,0
2017-04-06T01:43:14.584Z,0
2017-04-06T01:44:16.613Z,0
2017-04-06T01:45:18.399Z,0
2017-04-06T01:46:20.195Z,0
2017-04-06T01:47:21.986Z,0
2017-04-06T01:48:23.772Z,0
2017-04-06T01:49:25.576Z,0
2017-04-06T01:50:27.361Z,0
2017-04-06T01:51:29.155Z,0
2017-04-06T01:52:31.206Z,0
2017-04-06T01:53:32.997Z,0
2017-04-06T01:54:34.784Z,0
2017-04-06T01:55:36.572Z,0
2017-04-06T01:56:38.376Z,0
2017-04-06T01:57:40.148Z,0
2017-04-06T01:58:41.953Z,0
2017-04-06T01:59:43.740Z,0
2017-04-06T02:00:45.523Z,0
2017-04-06T02:01:47.312Z,0
2017-04-06T02:02:49.111Z,0
2017-04-06T02:03:50.899Z,0
2017-04-06T02:04:52.694Z,0
2017-04-06T02:05:54.487Z,0
2017-04-06T02:06:56.274Z,0
2017-04-06T02:07:58.066Z,0
2017-04-06T02:08:59.865Z,0
2017-04-06T02:10:01.657Z,0
2017-04-06T02:11:03.451Z,0
2017-04-06T02:12:05.250Z,0
2017-04-06T02:13:07.044Z,0
2017-04-06T02:14:08.832Z,0
2017-04-06T02:15:10.961Z,0
2017-04-06T02:16:12.752Z,0
2017-04-06T02:17:14.544Z,0
2017-04-06T02:18:16.332Z,0
2017-04-06T02:19:18.119Z,0
2017-04-06T02:20:19.901Z,0
2017-04-06T02:21:22.041Z,0
2017-04-06T02:22:23.827Z,0
2017-04-06T02:23:25.620Z,0
2017-04-06T02:24:27.405Z,0
2017-04-06T02:25:29.206Z,0
2017-04-06T02:26:30.995Z,0
2017-04-06T02:27:32.789Z,0
2017-04-06T02:28:34.581Z,0
2017-04-06T02:29:36.359Z,0
2017-04-06T02:30:38.156Z,0
2017-04-06T02:31:39.952Z,0
2017-04-06T02:32:41.743Z,0
2017-04-06T02:33:43.521Z,0
2017-04-06T02:34:45.335Z,0
2017-04-06T02:35:47.126Z,0
2017-04-06T02:36:48.923Z,0
2017-04-06T02:37:50.715Z,0
2017-04-06T02:38:52.499Z,0
2017-04-06T02:39:54.281Z,0
2017-04-06T02:40:56.072Z,0
2017-04-06T02:41:57.860Z,0
2017-04-06T02:42:59.653Z,0
2017-04-06T02:44:01.442Z,0
2017-04-06T02:45:03.239Z,0
2017-04-06T02:46:05.383Z,0
2017-04-06T02:47:07.166Z,0
2017-04-06T02:48:08.957Z,0
2017-04-06T02:49:10.736Z,0
2017-04-06T02:50:12.538Z,0
2017-04-06T02:51:14.665Z,0
2017-04-06T02:52:16.450Z,0
2017-04-06T02:53:18.238Z,0
2017-04-06T02:54:20.377Z,0
2017-04-06T02:55:22.177Z,0
2017-04-06T02:56:23.972Z,0
2017-04-06T02:57:25.763Z,0
2017-04-06T02:58:27.924Z,0
2017-04-06T02:59:29.718Z,0
2017-04-06T03:00:31.500Z,0
2017-04-06T03:01:33.281Z,0
2017-04-06T03:02:35.067Z,0
2017-04-06T03:03:36.854Z,0
2017-04-06T03:04:38.641Z,0
2017-04-06T03:05:40.433Z,0
2017-04-06T03:06:42.228Z,0
2017-04-06T03:07:44.017Z,0
2017-04-06T03:08:45.803Z,0
2017-04-06T03:09:47.594Z,0
2017-04-06T03:10:49.386Z,0
2017-04-06T03:11:51.183Z,0
2017-04-06T03:12:53.314Z,0
2017-04-06T03:13:55.103Z,0
2017-04-06T03:14:56.897Z,0
2017-04-06T03:15:58.684Z,0
2017-04-06T03:17:00.477Z,0
2017-04-06T03:18:02.611Z,0
2017-04-06T03:19:04.405Z,0
2017-04-06T03:20:06.189Z,0
2017-04-06T03:21:07.978Z,0
2017-04-06T03:22:09.774Z,0
2017-04-06T03:23:11.560Z,0
2017-04-06T03:24:13.351Z,0
2017-04-06T03:25:15.447Z,0
2017-04-06T03:26:17.238Z,0
2017-04-06T03:27:19.041Z,0
2017-04-06T03:28:20.832Z,0
2017-04-06T03:29:22.623Z,0
2017-04-06T03:30:24.404Z,0
2017-04-06T03:31:26.205Z,0
2017-04-06T03:32:27.989Z,0
2017-04-06T03:33:29.776Z,0
2017-04-06T03:34:31.563Z,0
2017-04-06T03:35:33.345Z,0
2017-04-06T03:36:35.136Z,0
2017-04-06T03:37:36.923Z,0
2017-04-06T03:38:38.729Z,0
2017-04-06T03:39:40.527Z,0
2017-04-06T03:40:42.319Z,0
2017-04-06T03:41:44.101Z,0
2017-04-06T03:42:45.893Z,0
2017-04-06T03:43:47.679Z,0
2017-04-06T03:44:49.467Z,0
2017-04-06T03:45:51.255Z,0
2017-04-06T03:46:53.379Z,0
2017-04-06T03:47:55.164Z,0
2017-04-06T03:48:56.967Z,0
2017-04-06T03:49:58.754Z,0
2017-04-06T03:51:00.543Z,0
2017-04-06T03:52:02.668Z,1
2017-04-06T03:53:04.474Z,1
2017-04-06T03:54:06.595Z,1
2017-04-06T03:55:08.381Z,1
2017-04-06T03:56:10.174Z,1
2017-04-06T03:57:11.975Z,1
2017-04-06T03:58:13.764Z,2
2017-04-06T03:59:15.545Z,2
2017-04-06T04:00:17.332Z,2
2017-04-06T04:01:19.119Z,1
2017-04-06T04:02:20.911Z,3
2017-04-06T04:03:22.703Z,3
2017-04-06T04:04:24.489Z,3
2017-04-06T04:05:26.277Z,4
2017-04-06T04:06:28.065Z,3
2017-04-06T04:07:29.849Z,6
2017-04-06T04:08:31.636Z,6
2017-04-06T04:09:33.436Z,7
2017-04-06T04:10:35.223Z,9
2017-04-06T04:11:37.008Z,10
2017-04-06T04:12:38.816Z,11
2017-04-06T04:13:40.596Z,14
2017-04-06T04:14:42.382Z,16
2017-04-06T04:15:44.168Z,20
2017-04-06T04:16:45.952Z,23
2017-04-06T04:17:47.741Z,27
2017-04-06T04:18:49.527Z,31
2017-04-06T04:19:51.322Z,36
2017-04-06T04:20:53.099Z,43
2017-04-06T04:21:54.891Z,49
2017-04-06T04:22:56.671Z,57
2017-04-06T04:23:58.800Z,67
2017-04-06T04:25:00.586Z,77
2017-04-06T04:26:02.374Z,87
2017-04-06T04:27:04.161Z,100
2017-04-06T04:28:06.282Z,113
2017-04-06T04:29:08.061Z,128
2017-04-06T04:30:09.847Z,144
2017-04-06T04:31:11.641Z,162
2017-04-06T04:32:13.429Z,181
2017-04-06T04:33:15.222Z,201
2017-04-06T04:34:17.024Z,222
2017-04-06T04:35:18.813Z,245
2017-04-06T04:36:20.936Z,269
2017-04-06T04:37:22.729Z,293
2017-04-06T04:38:24.510Z,320
2017-04-06T04:39:26.303Z,346
2017-04-06T04:40:28.089Z,373
2017-04-06T04:41:29.891Z,402
2017-04-06T04:42:31.675Z,432
2017-04-06T04:43:33.482Z,464
2017-04-06T04:44:35.274Z,496
2017-04-06T04:45:37.728Z,529
2017-04-06T04:46:40.735Z,561
2017-04-06T04:47:44.579Z,595
2017-04-06T04:48:46.373Z,630
2017-04-06T04:49:48.208Z,666
2017-04-06T04:50:50.005Z,700
2017-04-06T04:51:52.126Z,735
2017-04-06T04:52:53.916Z,772
2017-04-06T04:53:55.692Z,805
2017-04-06T04:54:57.485Z,842
2017-04-06T04:55:59.275Z,879
2017-04-06T04:57:01.115Z,913
2017-04-06T04:58:02.910Z,949
2017-04-06T04:59:04.699Z,984
2017-04-06T05:00:06.489Z,1021
2017-04-06T05:01:08.653Z,1055
2017-04-06T05:02:10.826Z,1089
2017-04-06T05:03:12.626Z,1125
2017-04-06T05:04:14.419Z,1159
2017-04-06T05:05:16.593Z,1194
2017-04-06T05:06:18.420Z,1226
2017-04-06T05:07:20.211Z,1265
2017-04-06T05:08:22.005Z,1301
2017-04-06T05:09:23.800Z,1332
2017-04-06T05:10:25.586Z,1366
2017-04-06T05:11:27.388Z,1398
2017-04-06T05:12:29.188Z,1432
2017-04-06T05:13:30.975Z,1465
2017-04-06T05:14:32.774Z,1499
2017-04-06T05:15:34.590Z,1530
2017-04-06T05:16:36.412Z,1563
2017-04-06T05:17:38.219Z,1593
2017-04-06T05:18:40.011Z,1620
2017-04-06T05:19:41.790Z,1648
2017-04-06T05:20:43.640Z,1673
2017-04-06T05:21:45.426Z,1701
2017-04-06T05:22:47.261Z,1731
2017-04-06T05:23:49.038Z,1763
2017-04-06T05:24:50.835Z,1795
2017-04-06T05:25:52.701Z,1824
2017-04-06T05:26:54.496Z,1857
2017-04-06T05:27:56.619Z,1888
2017-04-06T05:28:58.409Z,1916
2017-04-06T05:30:00.208Z,1942
2017-04-06T05:31:02.027Z,1971
2017-04-06T05:32:03.825Z,1995
2017-04-06T05:33:05.612Z,2021
2017-04-06T05:34:07.399Z,2048
2017-04-06T05:35:09.198Z,2073
2017-04-06T05:36:10.992Z,2100
2017-04-06T05:37:12.783Z,2128
2017-04-06T05:38:14.904Z,2159
2017-04-06T05:39:16.708Z,2195
2017-04-06T05:40:18.509Z,2231
2017-04-06T05:41:20.308Z,2258
2017-04-06T05:42:22.094Z,2288
2017-04-06T05:43:23.897Z,2313
2017-04-06T05:44:25.837Z,2337
2017-04-06T05:45:27.629Z,2363
2017-04-06T05:46:29.424Z,2381
2017-04-06T05:47:31.300Z,2418
2017-04-06T05:48:33.082Z,2438
2017-04-06T05:49:34.871Z,2467
2017-04-06T05:50:36.738Z,2491
2017-04-06T05:51:38.529Z,2522
2017-04-06T05:52:40.408Z,2552
2017-04-06T05:53:42.197Z,2575
2017-04-06T05:54:44.010Z,2596
2017-04-06T05:55:45.804Z,2617
2017-04-06T05:56:47.594Z,2639
2017-04-06T05:57:49.388Z,2657
2017-04-06T05:58:51.182Z,2672
2017-04-06T05:59:53.058Z,2698
2017-04-06T06:00:54.860Z,2716
2017-04-06T06:01:56.722Z,2733
2017-04-06T06:02:58.515Z,2754
2017-04-06T06:04:00.363Z,2790
2017-04-06T06:05:02.166Z,2815
2017-04-06T06:06:03.947Z,2854
2017-04-06T06:07:05.741Z,2886
2017-04-06T06:08:07.560Z,2919
2017-04-06T06:09:09.347Z,2938
2017-04-06T06:10:11.140Z,2960
2017-04-06T06:11:13.060Z,3025
2017-04-06T06:12:14.860Z,3069
2017-04-06T06:13:16.739Z,3050
2017-04-06T06:14:18.532Z,3082
2017-04-06T06:15:20.750Z,3129
2017-04-06T06:16:22.553Z,3161
2017-04-06T06:17:24.336Z,3192
2017-04-06T06:18:26.120Z,3216
2017-04-06T06:19:27.903Z,3256
2017-04-06T06:20:29.695Z,3280
2017-04-06T06:21:31.482Z,3296
2017-04-06T06:22:33.381Z,3281
2017-04-06T06:23:35.171Z,3329
2017-04-06T06:24:37.061Z,3328
2017-04-06T06:25:38.850Z,3369
2017-04-06T06:26:40.673Z,3366
2017-04-06T06:27:42.468Z,3342
2017-04-06T06:28:44.263Z,3359
2017-04-06T06:29:46.060Z,3375
2017-04-06T06:30:47.948Z,3383
2017-04-06T06:31:49.737Z,3406
2017-04-06T06:32:51.531Z,3415
2017-04-06T06:33:53.351Z,3447
2017-04-06T06:34:55.138Z,3447
2017-04-06T06:35:56.940Z,3447
2017-04-06T06:36:58.740Z,3503
2017-04-06T06:38:00.545Z,3503
2017-04-06T06:39:02.336Z,3527
2017-04-06T06:40:04.121Z,3527
2017-04-06T06:41:05.913Z,3535
2017-04-06T06:42:07.706Z,3551
2017-04-06T06:43:09.568Z,3527
2017-04-06T06:44:11.691Z,3560
2017-04-06T06:45:13.477Z,3582
2017-04-06T06:46:15.779Z,3593
2017-04-06T06:47:17.563Z,3617
2017-04-06T06:48:19.748Z,3608
2017-04-06T06:49:21.536Z,3632
2017-04-06T06:50:23.708Z,3672
2017-04-06T06:51:25.514Z,3720
2017-04-06T06:52:27.303Z,3734
2017-04-06T06:53:29.095Z,3729
2017-04-06T06:54:30.888Z,3697
2017-04-06T06:55:32.689Z,3714
2017-04-06T06:56:35.273Z,3738
2017-04-06T06:57:37.072Z,3762
2017-04-06T06:58:38.865Z,3760
2017-04-06T06:59:40.675Z,3776
2017-04-06T07:00:42.466Z,3817
2017-04-06T07:01:44.255Z,3800
2017-04-06T07:02:46.388Z,3826
2017-04-06T07:03:48.528Z,3842
2017-04-06T07:04:50.448Z,3842
2017-04-06T07:05:52.227Z,3859
2017-04-06T07:06:54.164Z,3866
2017-04-06T07:07:55.951Z,3842
2017-04-06T07:08:57.751Z,3899
2017-04-06T07:09:59.531Z,3970
2017-04-06T07:11:01.669Z,3952
2017-04-06T07:12:03.451Z,3993
2017-04-06T07:13:05.736Z,3993
2017-04-06T07:14:07.514Z,4025
2017-04-06T07:15:09.311Z,4048
2017-04-06T07:16:11.106Z,4088
2017-04-06T07:17:12.902Z,4097
2017-04-06T07:18:14.733Z,4145
2017-04-06T07:19:16.536Z,4176
2017-04-06T07:20:18.334Z,4191
2017-04-06T07:21:20.150Z,4198
2017-04-06T07:22:21.943Z,4238
2017-04-06T07:23:23.732Z,4238
2017-04-06T07:24:25.527Z,4257
2017-04-06T07:25:27.389Z,4247
2017-04-06T07:26:29.186Z,4271
2017-04-06T07:27:30.968Z,4335
2017-04-06T07:28:32.778Z,4350
2017-04-06T07:29:34.923Z,4414
2017-04-06T07:30:36.716Z,4460
2017-04-06T07:31:38.500Z,4493
2017-04-06T07:32:40.301Z,4493
2017-04-06T07:33:42.085Z,4495
2017-04-06T07:34:43.886Z,4495
2017-04-06T07:35:45.738Z,4535
2017-04-06T07:36:47.541Z,4574
2017-04-06T07:37:49.336Z,4621
2017-04-06T07:38:51.135Z,4700
2017-04-06T07:39:52.923Z,4748
2017-04-06T07:40:54.739Z,4781
2017-04-06T07:41:56.664Z,4765
2017-04-06T07:42:58.456Z,4869
2017-04-06T07:44:00.247Z,4924
2017-04-06T07:45:02.038Z,4876
2017-04-06T07:46:03.841Z,4876
2017-04-06T07:47:05.972Z,4854
2017-04-06T07:48:07.956Z,4949
2017-04-06T07:49:09.754Z,4957
2017-04-06T07:50:11.554Z,4990
2017-04-06T07:51:13.335Z,5148
2017-04-06T07:52:15.139Z,13686
2017-04-06T07:53:16.938Z,65536
2017-04-06T07:54:18.731Z,65536
2017-04-06T07:55:20.528Z,65536
2017-04-06T07:56:22.320Z,65536
2017-04-06T07:57:24.118Z,65536
2017-04-06T07:58:26.265Z,65536
2017-04-06T07:59:28.065Z,65536
2017-04-06T08:00:30.099Z,22269
2017-04-06T08:01:31.903Z,15647
2017-04-06T08:02:33.697Z,15855
2017-04-06T08:03:35.489Z,16748
2017-04-06T08:04:37.280Z,17553
2017-04-06T08:05:39.074Z,18137
2017-04-06T08:06:41.202Z,18422
2017-04-06T08:07:42.998Z,19135
2017-04-06T08:08:45.026Z,19879
2017-04-06T08:09:46.825Z,22226
2017-04-06T08:10:48.621Z,24459
2017-04-06T08:11:50.425Z,27368
2017-04-06T08:12:52.204Z,33472
2017-04-06T08:13:54.345Z,65536
2017-04-06T08:14:56.148Z,65536
2017-04-06T08:15:57.946Z,65536
2017-04-06T08:17:00.225Z,65536
2017-04-06T08:18:02.025Z,65536
2017-04-06T08:19:03.826Z,65536
2017-04-06T08:20:05.630Z,65536
2017-04-06T08:21:07.429Z,65536
2017-04-06T08:22:09.217Z,65536
2017-04-06T08:23:11.014Z,65536
2017-04-06T08:24:12.803Z,65536
2017-04-06T08:25:14.894Z,65536
2017-04-06T08:26:16.688Z,65536
2017-04-06T08:27:18.487Z,65536
2017-04-06T08:28:20.270Z,65536
2017-04-06T08:29:22.069Z,65536
2017-04-06T08:30:23.864Z,65536
2017-04-06T08:31:25.899Z,65536
2017-04-06T08:32:27.692Z,65536
2017-04-06T08:33:29.762Z,65536
2017-04-06T08:34:31.560Z,65536
2017-04-06T08:35:33.364Z,65536
2017-04-06T08:36:35.151Z,65536
2017-04-06T08:37:36.959Z,65536
2017-04-06T08:38:38.764Z,65536
2017-04-06T08:39:40.569Z,65536
2017-04-06T08:40:42.626Z,65536
2017-04-06T08:41:44.425Z,65536
2017-04-06T08:42:46.226Z,65536
2017-04-06T08:43:48.021Z,65536
2017-04-06T08:44:50.168Z,65536
2017-04-06T08:45:51.956Z,65536
2017-04-06T08:46:53.763Z,65536
2017-04-06T08:47:55.561Z,65536
2017-04-06T08:48:57.672Z,65536
2017-04-06T08:49:59.459Z,65536
2017-04-06T08:51:01.269Z,65536
2017-04-06T08:52:03.067Z,65536
2017-04-06T08:53:04.874Z,65536
2017-04-06T08:54:06.673Z,65536
2017-04-06T08:55:08.477Z,65536
2017-04-06T08:56:10.282Z,65536
2017-04-06T08:57:12.350Z,65536
2017-04-06T08:58:14.141Z,65536
2017-04-06T08:59:15.946Z,65536
2017-04-06T09:00:17.752Z,65536
2017-04-06T09:01:19.559Z,65536
2017-04-06T09:02:21.365Z,65536
2017-04-06T09:03:23.276Z,65536
2017-04-06T09:04:25.083Z,65536
2017-04-06T09:05:27.072Z,65536
2017-04-06T09:06:28.889Z,65536
2017-04-06T09:07:30.693Z,65536
2017-04-06T09:08:32.502Z,65536
2017-04-06T09:09:34.637Z,65536
2017-04-06T09:10:36.783Z,65536
2017-04-06T09:11:38.594Z,65536
2017-04-06T09:12:40.402Z,65536
2017-04-06T09:13:42.385Z,65536
2017-04-06T09:14:44.540Z,65536
2017-04-06T09:15:46.350Z,65536
2017-04-06T09:16:48.505Z,65536
2017-04-06T09:17:50.312Z,65536
2017-04-06T09:18:52.122Z,65536
2017-04-06T09:19:53.932Z,65536
2017-04-06T09:20:55.750Z,65536
2017-04-06T09:21:57.562Z,65536
2017-04-06T09:22:59.491Z,65536
2017-04-06T09:24:01.304Z,65536
2017-04-06T09:25:03.103Z,65536
2017-04-06T09:26:04.918Z,65536
2017-04-06T09:27:06.718Z,65536
2017-04-06T09:28:08.866Z,65536
2017-04-06T09:29:11.274Z,65536
2017-04-06T09:30:13.087Z,65536
2017-04-06T09:31:14.886Z,65536
2017-04-06T09:32:16.728Z,65536
2017-04-06T09:33:18.874Z,65536
2017-04-06T09:34:20.972Z,65536
2017-04-06T09:35:22.784Z,65536
2017-04-06T09:36:24.607Z,65536
2017-04-06T09:37:26.417Z,65536
2017-04-06T09:38:28.223Z,65536
2017-04-06T09:39:30.045Z,65536
2017-04-06T09:40:31.851Z,65536
2017-04-06T09:41:33.666Z,65536
2017-04-06T09:42:35.481Z,65536
2017-04-06T09:43:37.293Z,65536
2017-04-06T09:44:39.099Z,65536
2017-04-06T09:45:41.518Z,65536
2017-04-06T09:46:43.322Z,65536
2017-04-06T09:47:45.146Z,14841
2017-04-06T09:48:46.950Z,65536
2017-04-06T09:49:49.093Z,65536
2017-04-06T09:50:50.906Z,65536
2017-04-06T09:51:52.712Z,65536
2017-04-06T09:52:54.521Z,65536
2017-04-06T09:53:56.327Z,65536
2017-04-06T09:54:58.143Z,65536
2017-04-06T09:56:00.281Z,65536
2017-04-06T09:57:02.082Z,65536
2017-04-06T09:58:03.889Z,65536
2017-04-06T09:59:05.711Z,65536
2017-04-06T10:00:07.516Z,65536
2017-04-06T10:01:09.324Z,65536
2017-04-06T10:02:11.128Z,65536
2017-04-06T10:03:12.946Z,65536
2017-04-06T10:04:15.094Z,65536
2017-04-06T10:05:16.908Z,65536
2017-04-06T10:06:18.710Z,65536
2017-04-06T10:07:20.528Z,65536
2017-04-06T10:08:22.334Z,65536
2017-04-06T10:09:24.145Z,65536
2017-04-06T10:10:25.938Z,65536
2017-04-06T10:11:27.746Z,65536
2017-04-06T10:12:29.558Z,65536
2017-04-06T10:13:31.368Z,65536
2017-04-06T10:14:33.187Z,65536
2017-04-06T10:15:35.333Z,65536
2017-04-06T10:16:37.149Z,65536
2017-04-06T10:17:38.953Z,65536
2017-04-06T10:18:40.753Z,65536
2017-04-06T10:19:42.555Z,65536
2017-04-06T10:20:44.377Z,65536
2017-04-06T10:21:46.178Z,65536
2017-04-06T10:22:47.988Z,65536
2017-04-06T10:23:49.789Z,65536
2017-04-06T10:24:51.606Z,65536
2017-04-06T10:25:53.417Z,65536
2017-04-06T10:26:55.227Z,65536
2017-04-06T10:27:57.037Z,65536
2017-04-06T10:28:58.863Z,27892
2017-04-06T10:30:00.674Z,65536
2017-04-06T10:31:02.478Z,65536
2017-04-06T10:32:04.285Z,65536
2017-04-06T10:33:06.094Z,65536
2017-04-06T10:34:07.905Z,65536
2017-04-06T10:35:09.710Z,65536
2017-04-06T10:36:11.527Z,65536
2017-04-06T10:37:13.327Z,65536
2017-04-06T10:38:15.149Z,65536
2017-04-06T10:39:16.961Z,65536
2017-04-06T10:40:18.769Z,65536
2017-04-06T10:41:20.584Z,65536
2017-04-06T10:42:22.727Z,65536
2017-04-06T10:43:24.533Z,65536
2017-04-06T10:44:26.338Z,65536
2017-04-06T10:45:28.158Z,65536
2017-04-06T10:46:29.964Z,65536
2017-04-06T10:47:31.768Z,65536
2017-04-06T10:48:33.588Z,65536
2017-04-06T10:49:35.729Z,65536
2017-04-06T10:50:37.535Z,65536
2017-04-06T10:51:39.343Z,65536
2017-04-06T10:52:41.482Z,65536
2017-04-06T10:53:43.310Z,65536
2017-04-06T10:54:45.118Z,65536
2017-04-06T10:55:46.965Z,65536
2017-04-06T10:56:49.483Z,65536
2017-04-06T10:57:51.626Z,65536
2017-04-06T10:58:53.787Z,65536
2017-04-06T10:59:57.213Z,65536
2017-04-06T11:00:59.615Z,65536
2017-04-06T11:02:01.954Z,65536
2017-04-06T11:03:04.451Z,65536
2017-04-06T11:04:07.499Z,65536
2017-04-06T11:05:10.008Z,65536
2017-04-06T11:06:12.404Z,65536
2017-04-06T11:07:14.501Z,65536
2017-04-06T11:08:17.106Z,65536
2017-04-06T11:09:19.338Z,65536
2017-04-06T11:10:21.350Z,65536
2017-04-06T11:11:23.691Z,65536
2017-04-06T11:12:26.051Z,65536
2017-04-06T11:13:28.104Z,65536
2017-04-06T11:14:31.648Z,65536
2017-04-06T11:15:33.801Z,65536
2017-04-06T11:16:35.768Z,65536
2017-04-06T11:17:38.467Z,65536
2017-04-06T11:18:40.630Z,65536
2017-04-06T11:19:42.732Z,65536
2017-04-06T11:20:44.777Z,65536
2017-04-06T11:21:47.193Z,65536
2017-04-06T11:22:49.611Z,65536
2017-04-06T11:23:51.675Z,65536
2017-04-06T11:24:54.887Z,65536
2017-04-06T11:25:58.013Z,65536
2017-04-06T11:26:59.939Z,65536
2017-04-06T11:28:01.834Z,65536
2017-04-06T11:29:04.237Z,65536
2017-04-06T11:30:06.767Z,65536
2017-04-06T11:31:08.733Z,65536
2017-04-06T11:32:10.901Z,65536
2017-04-06T11:33:13.300Z,65536
2017-04-06T11:34:16.033Z,65536
2017-04-06T11:35:17.898Z,65536
2017-04-06T11:36:19.905Z,65536
2017-04-06T11:37:21.811Z,65536
2017-04-06T11:38:23.635Z,65536
2017-04-06T11:39:25.779Z,65536
2017-04-06T11:40:27.595Z,65536
2017-04-06T11:41:29.410Z,65536
2017-04-06T11:42:31.228Z,65536
2017-04-06T11:43:33.041Z,65536
2017-04-06T11:44:35.533Z,65536
2017-04-06T11:45:37.348Z,65536
2017-04-06T11:46:39.235Z,65536
2017-04-06T11:47:41.051Z,65536
2017-04-06T11:48:42.860Z,65536
2017-04-06T11:49:44.684Z,65536
2017-04-06T11:50:46.502Z,65536
2017-04-06T11:51:48.323Z,65536
2017-04-06T11:52:50.150Z,65536
2017-04-06T11:53:51.965Z,65536
2017-04-06T11:54:53.784Z,65536
2017-04-06T11:55:55.609Z,65536
2017-04-06T11:56:57.410Z,65536
2017-04-06T11:57:59.229Z,65536
2017-04-06T11:59:01.036Z,65536
2017-04-06T12:00:02.916Z,65536
2017-04-06T12:01:04.730Z,65536
2017-04-06T12:02:06.547Z,65536
2017-04-06T12:03:08.356Z,65536
2017-04-06T12:04:10.511Z,65536
2017-04-06T12:05:12.339Z,65536
2017-04-06T12:06:14.499Z,65536
2017-04-06T12:07:16.336Z,65536
2017-04-06T12:08:18.285Z,65536
2017-04-06T12:09:20.104Z,65536
2017-04-06T12:10:22.607Z,65536
2017-04-06T12:11:24.429Z,65536
2017-04-06T12:12:26.236Z,65536
2017-04-06T12:13:28.062Z,65536
2017-04-06T12:14:29.861Z,65536
2017-04-06T12:15:31.745Z,29678
2017-04-06T12:16:33.575Z,30177
2017-04-06T12:17:35.411Z,18879
2017-04-06T12:18:37.230Z,19041
2017-04-06T12:19:39.049Z,30674
2017-04-06T12:20:40.861Z,65536
2017-04-06T12:21:42.698Z,65536
2017-04-06T12:22:44.856Z,65536
2017-04-06T12:23:46.662Z,65536
2017-04-06T12:24:48.819Z,65536
2017-04-06T12:25:50.645Z,65536
2017-04-06T12:26:52.452Z,32812
2017-04-06T12:27:54.268Z,26966
2017-04-06T12:28:56.080Z,65536
2017-04-06T12:29:57.887Z,65536
2017-04-06T12:30:59.704Z,65536
2017-04-06T12:32:01.864Z,65536
2017-04-06T12:33:03.678Z,65536
2017-04-06T12:34:05.490Z,65536
2017-04-06T12:35:07.305Z,65536
2017-04-06T12:36:09.450Z,65536
2017-04-06T12:37:11.296Z,65536
2017-04-06T12:38:13.103Z,65536
2017-04-06T12:39:14.922Z,65536
2017-04-06T12:40:16.724Z,65536
2017-04-06T12:41:18.551Z,65536
2017-04-06T12:42:20.362Z,65536
2017-04-06T12:43:22.244Z,23841
2017-04-06T12:44:24.410Z,65536
2017-04-06T12:45:27.726Z,24458
2017-04-06T12:46:30.062Z,65536
2017-04-06T12:47:33.071Z,65536
2017-04-06T12:48:36.249Z,65536
2017-04-06T12:49:38.902Z,65536
2017-04-06T12:50:41.563Z,35938
2017-04-06T12:51:44.442Z,29108
2017-04-06T12:52:47.720Z,23346
2017-04-06T12:53:50.485Z,25189
2017-04-06T12:54:53.152Z,65536
2017-04-06T12:55:57.621Z,65536
2017-04-06T12:57:00.054Z,65536
2017-04-06T12:58:02.678Z,65536
2017-04-06T12:59:05.275Z,65536
2017-04-06T13:00:08.118Z,65536
2017-04-06T13:01:12.409Z,65536
2017-04-06T13:02:15.020Z,65536
2017-04-06T13:03:18.468Z,65536
2017-04-06T13:04:22.461Z,65536
2017-04-06T13:05:27.422Z,65536
2017-04-06T13:06:29.640Z,65536
2017-04-06T13:07:33.093Z,28046
2017-04-06T13:08:36.168Z,65536
2017-04-06T13:09:39.445Z,65536
2017-04-06T13:10:42.532Z,65536
2017-04-06T13:11:50.670Z,65536
2017-04-06T13:12:53.214Z,65536
2017-04-06T13:13:57.811Z,65536
2017-04-06T13:15:01.645Z,65536
2017-04-06T13:16:04.433Z,33141
2017-04-06T13:17:08.576Z,31566
2017-04-06T13:18:11.155Z,29764
2017-04-06T13:21:13.801Z,23542
2017-04-06T13:22:16.266Z,27891
2017-04-06T13:23:18.102Z,34429
2017-04-06T13:24:19.943Z,65536
2017-04-06T13:25:21.801Z,27236
2017-04-06T13:26:26.027Z,27380
2017-04-06T13:27:41.655Z,31165
2017-04-06T13:28:44.410Z,31551
2017-04-06T13:29:46.385Z,31356
2017-04-06T13:30:48.234Z,31140
2017-04-06T13:31:50.041Z,29740
2017-04-06T13:32:51.846Z,34066
2017-04-06T13:33:53.656Z,22837
2017-04-06T13:34:55.471Z,23586
2017-04-06T13:35:57.278Z,18512
2017-04-06T13:36:59.083Z,16576
2017-04-06T13:38:00.897Z,15380
2017-04-06T13:39:03.387Z,14786
2017-04-06T13:40:05.312Z,15490
2017-04-06T13:41:08.937Z,16739
2017-04-06T13:42:10.754Z,18108
2017-04-06T13:43:12.556Z,17124
2017-04-06T13:44:14.365Z,17886
2017-04-06T13:45:16.176Z,14924
2017-04-06T13:46:17.984Z,16715
2017-04-06T13:47:19.797Z,16037
2017-04-06T13:48:21.601Z,17867
2017-04-06T13:49:23.428Z,29952
2017-04-06T13:50:25.236Z,65536
2017-04-06T13:51:27.041Z,21409
2017-04-06T13:52:28.845Z,22809
2017-04-06T13:53:30.645Z,15261
2017-04-06T13:54:32.446Z,12666
2017-04-06T13:55:34.606Z,12876
2017-04-06T13:56:36.402Z,65536
2017-04-06T13:57:38.538Z,65536
2017-04-06T13:58:40.344Z,65536
2017-04-06T13:59:42.151Z,65536
2017-04-06T14:00:43.948Z,65536
2017-04-06T14:01:46.095Z,65536